sensor_id;sensor_type;location;lat;lon;timestamp;P1;durP1;ratioP1;P2;durP2;ratioP2
2474;SDS011;1248;48.694;10.160;2023-04-30T00:02:27;7.17;;;5.77;;
2474;SDS011;1248;48.694;10.160;2023-04-30T00:04:54;9.50;;;6.57;;
2474;SDS011;1248;48.694;10.160;2023-04-30T00:07:21;8.63;;;7.03;;
2474;SDS011;1248;48.694;10.160;2023-04-30T00:09:48;9.37;;;5.80;;
2474;SDS011;1248;48.694;10.160;2023-04-30T00:12:17;9.00;;;6.50;;
2474;SDS011;1248;48.694;10.160;2023-04-30T00:14:44;12.90;;;6.80;;
2474;SDS011;1248;48.694;10.160;2023-04-30T00:17:11;7.87;;;6.70;;
2474;SDS011;1248;48.694;10.160;2023-04-30T00:19:38;8.33;;;7.00;;
2474;SDS011;1248;48.694;10.160;2023-04-30T00:22:05;9.90;;;6.87;;
2474;SDS011;1248;48.694;10.160;2023-04-30T00:24:32;9.57;;;7.80;;
2474;SDS011;1248;48.694;10.160;2023-04-30T00:26:59;8.73;;;6.83;;
2474;SDS011;1248;48.694;10.160;2023-04-30T00:29:27;10.57;;;7.53;;
2474;SDS011;1248;48.694;10.160;2023-04-30T00:31:54;10.53;;;7.47;;
2474;SDS011;1248;48.694;10.160;2023-04-30T00:34:21;8.90;;;7.63;;
2474;SDS011;1248;48.694;10.160;2023-04-30T00:36:48;9.90;;;7.40;;
2474;SDS011;1248;48.694;10.160;2023-04-30T00:39:16;9.10;;;7.67;;
2474;SDS011;1248;48.694;10.160;2023-04-30T00:41:43;8.90;;;7.50;;
2474;SDS011;1248;48.694;10.160;2023-04-30T00:44:10;10.20;;;7.17;;
2474;SDS011;1248;48.694;10.160;2023-04-30T00:46:38;8.53;;;6.93;;
2474;SDS011;1248;48.694;10.160;2023-04-30T00:49:06;8.53;;;7.03;;
2474;SDS011;1248;48.694;10.160;2023-04-30T00:51:33;11.53;;;8.70;;
2474;SDS011;1248;48.694;10.160;2023-04-30T00:54:01;9.87;;;7.40;;
2474;SDS011;1248;48.694;10.160;2023-04-30T00:56:29;9.33;;;7.13;;
2474;SDS011;1248;48.694;10.160;2023-04-30T00:58:57;8.87;;;7.27;;
2474;SDS011;1248;48.694;10.160;2023-04-30T01:01:24;9.83;;;7.87;;
2474;SDS011;1248;48.694;10.160;2023-04-30T01:03:54;8.37;;;7.43;;
2474;SDS011;1248;48.694;10.160;2023-04-30T01:06:21;9.03;;;7.27;;
2474;SDS011;1248;48.694;10.160;2023-04-30T01:08:49;11.40;;;7.87;;
2474;SDS011;1248;48.694;10.160;2023-04-30T01:11:18;12.13;;;7.30;;
2474;SDS011;1248;48.694;10.160;2023-04-30T01:13:50;10.37;;;8.20;;
2474;SDS011;1248;48.694;10.160;2023-04-30T01:16:29;11.33;;;7.30;;
2474;SDS011;1248;48.694;10.160;2023-04-30T01:19:03;9.23;;;8.23;;
2474;SDS011;1248;48.694;10.160;2023-04-30T01:21:31;8.43;;;7.40;;
2474;SDS011;1248;48.694;10.160;2023-04-30T01:26:58;9.10;;;7.63;;
2474;SDS011;1248;48.694;10.160;2023-04-30T01:29:30;11.23;;;7.53;;
2474;SDS011;1248;48.694;10.160;2023-04-30T01:31:58;10.43;;;8.60;;
2474;SDS011;1248;48.694;10.160;2023-04-30T01:34:27;11.07;;;8.60;;
2474;SDS011;1248;48.694;10.160;2023-04-30T01:36:58;11.87;;;9.07;;
2474;SDS011;1248;48.694;10.160;2023-04-30T01:39:38;9.53;;;8.23;;
2474;SDS011;1248;48.694;10.160;2023-04-30T01:42:15;9.17;;;8.00;;
2474;SDS011;1248;48.694;10.160;2023-04-30T01:45:01;10.97;;;8.17;;
2474;SDS011;1248;48.694;10.160;2023-04-30T01:47:39;11.63;;;8.10;;
2474;SDS011;1248;48.694;10.160;2023-04-30T01:50:14;13.20;;;9.13;;
2474;SDS011;1248;48.694;10.160;2023-04-30T01:52:49;12.53;;;7.57;;
2474;SDS011;1248;48.694;10.160;2023-04-30T01:55:18;10.90;;;8.23;;
2474;SDS011;1248;48.694;10.160;2023-04-30T01:57:49;13.80;;;9.83;;
2474;SDS011;1248;48.694;10.160;2023-04-30T02:00:21;11.30;;;9.30;;
2474;SDS011;1248;48.694;10.160;2023-04-30T02:02:49;12.00;;;8.90;;
2474;SDS011;1248;48.694;10.160;2023-04-30T02:05:16;11.93;;;9.07;;
2474;SDS011;1248;48.694;10.160;2023-04-30T02:07:44;14.10;;;9.43;;
2474;SDS011;1248;48.694;10.160;2023-04-30T02:10:12;14.63;;;9.00;;
2474;SDS011;1248;48.694;10.160;2023-04-30T02:12:39;14.20;;;9.57;;
2474;SDS011;1248;48.694;10.160;2023-04-30T02:15:07;12.00;;;9.60;;
2474;SDS011;1248;48.694;10.160;2023-04-30T02:17:36;13.57;;;9.77;;
2474;SDS011;1248;48.694;10.160;2023-04-30T02:20:03;14.93;;;10.73;;
2474;SDS011;1248;48.694;10.160;2023-04-30T02:22:31;10.53;;;9.53;;
2474;SDS011;1248;48.694;10.160;2023-04-30T02:24:58;11.77;;;9.20;;
2474;SDS011;1248;48.694;10.160;2023-04-30T02:27:27;11.50;;;10.20;;
2474;SDS011;1248;48.694;10.160;2023-04-30T02:29:56;11.63;;;9.70;;
2474;SDS011;1248;48.694;10.160;2023-04-30T02:32:23;14.07;;;9.80;;
2474;SDS011;1248;48.694;10.160;2023-04-30T02:34:51;17.23;;;9.63;;
2474;SDS011;1248;48.694;10.160;2023-04-30T02:37:18;12.57;;;9.77;;
2474;SDS011;1248;48.694;10.160;2023-04-30T02:39:45;16.30;;;10.17;;
2474;SDS011;1248;48.694;10.160;2023-04-30T02:42:13;13.38;;;10.13;;
2474;SDS011;1248;48.694;10.160;2023-04-30T02:44:40;11.83;;;8.77;;
2474;SDS011;1248;48.694;10.160;2023-04-30T02:47:08;11.67;;;9.40;;
2474;SDS011;1248;48.694;10.160;2023-04-30T02:49:35;12.90;;;10.67;;
2474;SDS011;1248;48.694;10.160;2023-04-30T02:52:03;13.13;;;10.20;;
2474;SDS011;1248;48.694;10.160;2023-04-30T02:54:31;14.97;;;12.97;;
2474;SDS011;1248;48.694;10.160;2023-04-30T02:56:58;15.23;;;11.27;;
2474;SDS011;1248;48.694;10.160;2023-04-30T02:59:26;15.03;;;10.90;;
2474;SDS011;1248;48.694;10.160;2023-04-30T03:01:53;16.50;;;12.23;;
2474;SDS011;1248;48.694;10.160;2023-04-30T03:04:20;15.43;;;11.80;;
2474;SDS011;1248;48.694;10.160;2023-04-30T03:06:47;15.73;;;11.37;;
2474;SDS011;1248;48.694;10.160;2023-04-30T03:09:15;14.63;;;11.37;;
2474;SDS011;1248;48.694;10.160;2023-04-30T03:11:42;16.47;;;12.13;;
2474;SDS011;1248;48.694;10.160;2023-04-30T03:14:09;16.13;;;12.10;;
2474;SDS011;1248;48.694;10.160;2023-04-30T03:16:36;17.77;;;11.87;;
2474;SDS011;1248;48.694;10.160;2023-04-30T03:19:03;14.53;;;11.20;;
2474;SDS011;1248;48.694;10.160;2023-04-30T03:21:30;14.03;;;11.33;;
2474;SDS011;1248;48.694;10.160;2023-04-30T03:23:57;14.20;;;12.00;;
2474;SDS011;1248;48.694;10.160;2023-04-30T03:26:26;14.27;;;12.03;;
2474;SDS011;1248;48.694;10.160;2023-04-30T03:28:53;14.80;;;11.33;;
2474;SDS011;1248;48.694;10.160;2023-04-30T03:31:20;13.87;;;10.70;;
2474;SDS011;1248;48.694;10.160;2023-04-30T03:33:47;15.80;;;11.40;;
2474;SDS011;1248;48.694;10.160;2023-04-30T03:36:14;17.13;;;11.80;;
2474;SDS011;1248;48.694;10.160;2023-04-30T03:38:41;15.73;;;12.30;;
2474;SDS011;1248;48.694;10.160;2023-04-30T03:41:08;12.60;;;11.30;;
2474;SDS011;1248;48.694;10.160;2023-04-30T03:43:37;17.70;;;12.23;;
2474;SDS011;1248;48.694;10.160;2023-04-30T03:46:04;13.73;;;11.73;;
2474;SDS011;1248;48.694;10.160;2023-04-30T03:48:31;16.33;;;11.60;;
2474;SDS011;1248;48.694;10.160;2023-04-30T03:50:58;17.30;;;11.63;;
2474;SDS011;1248;48.694;10.160;2023-04-30T03:53:25;13.30;;;11.90;;
2474;SDS011;1248;48.694;10.160;2023-04-30T03:55:52;18.77;;;13.57;;
2474;SDS011;1248;48.694;10.160;2023-04-30T03:58:20;18.50;;;13.30;;
2474;SDS011;1248;48.694;10.160;2023-04-30T04:00:48;15.50;;;12.60;;
2474;SDS011;1248;48.694;10.160;2023-04-30T04:03:15;15.67;;;12.30;;
2474;SDS011;1248;48.694;10.160;2023-04-30T04:05:42;15.30;;;12.47;;
2474;SDS011;1248;48.694;10.160;2023-04-30T04:08:10;25.33;;;14.80;;
2474;SDS011;1248;48.694;10.160;2023-04-30T04:10:37;16.87;;;13.33;;
2474;SDS011;1248;48.694;10.160;2023-04-30T04:13:05;15.63;;;12.83;;
2474;SDS011;1248;48.694;10.160;2023-04-30T04:15:32;17.70;;;13.60;;
2474;SDS011;1248;48.694;10.160;2023-04-30T04:18:01;16.37;;;12.30;;
2474;SDS011;1248;48.694;10.160;2023-04-30T04:20:28;18.67;;;13.97;;
2474;SDS011;1248;48.694;10.160;2023-04-30T04:22:55;19.90;;;12.70;;
2474;SDS011;1248;48.694;10.160;2023-04-30T04:25:22;15.83;;;12.50;;
2474;SDS011;1248;48.694;10.160;2023-04-30T04:27:50;17.83;;;13.00;;
2474;SDS011;1248;48.694;10.160;2023-04-30T04:30:17;19.23;;;13.10;;
2474;SDS011;1248;48.694;10.160;2023-04-30T04:32:44;17.93;;;12.83;;
2474;SDS011;1248;48.694;10.160;2023-04-30T04:35:19;17.43;;;13.23;;
2474;SDS011;1248;48.694;10.160;2023-04-30T04:37:47;15.33;;;12.40;;
2474;SDS011;1248;48.694;10.160;2023-04-30T04:40:14;16.63;;;12.70;;
2474;SDS011;1248;48.694;10.160;2023-04-30T04:42:41;18.23;;;13.20;;
2474;SDS011;1248;48.694;10.160;2023-04-30T04:45:08;18.23;;;12.20;;
2474;SDS011;1248;48.694;10.160;2023-04-30T04:47:35;15.90;;;12.33;;
2474;SDS011;1248;48.694;10.160;2023-04-30T04:50:03;18.10;;;12.70;;
2474;SDS011;1248;48.694;10.160;2023-04-30T04:52:32;16.10;;;13.10;;
2474;SDS011;1248;48.694;10.160;2023-04-30T04:54:59;18.27;;;13.80;;
2474;SDS011;1248;48.694;10.160;2023-04-30T04:57:26;16.47;;;13.30;;
2474;SDS011;1248;48.694;10.160;2023-04-30T04:59:53;21.10;;;14.23;;
2474;SDS011;1248;48.694;10.160;2023-04-30T05:02:21;17.70;;;13.80;;
2474;SDS011;1248;48.694;10.160;2023-04-30T05:04:48;18.70;;;14.07;;
2474;SDS011;1248;48.694;10.160;2023-04-30T05:07:15;19.27;;;14.00;;
2474;SDS011;1248;48.694;10.160;2023-04-30T05:09:44;19.63;;;14.00;;
2474;SDS011;1248;48.694;10.160;2023-04-30T05:12:12;23.40;;;13.73;;
2474;SDS011;1248;48.694;10.160;2023-04-30T05:14:39;15.47;;;12.50;;
2474;SDS011;1248;48.694;10.160;2023-04-30T05:17:07;17.67;;;13.27;;
2474;SDS011;1248;48.694;10.160;2023-04-30T05:19:34;21.33;;;15.50;;
2474;SDS011;1248;48.694;10.160;2023-04-30T05:22:01;21.10;;;14.23;;
2474;SDS011;1248;48.694;10.160;2023-04-30T05:24:28;17.80;;;13.93;;
2474;SDS011;1248;48.694;10.160;2023-04-30T05:26:57;16.67;;;13.70;;
2474;SDS011;1248;48.694;10.160;2023-04-30T05:29:24;14.13;;;11.77;;
2474;SDS011;1248;48.694;10.160;2023-04-30T05:31:51;14.50;;;12.03;;
2474;SDS011;1248;48.694;10.160;2023-04-30T05:34:19;17.00;;;13.80;;
2474;SDS011;1248;48.694;10.160;2023-04-30T05:36:46;16.00;;;12.17;;
2474;SDS011;1248;48.694;10.160;2023-04-30T05:39:13;16.63;;;12.60;;
2474;SDS011;1248;48.694;10.160;2023-04-30T05:41:40;14.43;;;12.70;;
2474;SDS011;1248;48.694;10.160;2023-04-30T05:44:08;14.00;;;12.47;;
2474;SDS011;1248;48.694;10.160;2023-04-30T05:46:35;14.57;;;11.50;;
2474;SDS011;1248;48.694;10.160;2023-04-30T05:49:02;14.30;;;12.13;;
2474;SDS011;1248;48.694;10.160;2023-04-30T05:51:29;18.00;;;12.77;;
2474;SDS011;1248;48.694;10.160;2023-04-30T05:53:57;23.67;;;14.20;;
2474;SDS011;1248;48.694;10.160;2023-04-30T05:56:24;15.50;;;12.33;;
2474;SDS011;1248;48.694;10.160;2023-04-30T05:58:52;21.10;;;13.83;;
2474;SDS011;1248;48.694;10.160;2023-04-30T06:01:20;20.67;;;14.20;;
2474;SDS011;1248;48.694;10.160;2023-04-30T06:03:47;18.37;;;13.23;;
2474;SDS011;1248;48.694;10.160;2023-04-30T06:06:15;18.57;;;13.83;;
2474;SDS011;1248;48.694;10.160;2023-04-30T06:08:42;17.37;;;12.33;;
2474;SDS011;1248;48.694;10.160;2023-04-30T06:11:10;13.53;;;11.60;;
2474;SDS011;1248;48.694;10.160;2023-04-30T06:13:37;14.03;;;11.67;;
2474;SDS011;1248;48.694;10.160;2023-04-30T06:16:05;15.20;;;12.17;;
2474;SDS011;1248;48.694;10.160;2023-04-30T06:18:34;15.90;;;12.27;;
2474;SDS011;1248;48.694;10.160;2023-04-30T06:21:01;24.70;;;15.20;;
2474;SDS011;1248;48.694;10.160;2023-04-30T06:23:28;20.67;;;13.57;;
2474;SDS011;1248;48.694;10.160;2023-04-30T06:25:55;17.00;;;10.63;;
2474;SDS011;1248;48.694;10.160;2023-04-30T06:28:22;14.80;;;11.20;;
2474;SDS011;1248;48.694;10.160;2023-04-30T06:30:49;15.57;;;11.27;;
2474;SDS011;1248;48.694;10.160;2023-04-30T06:33:16;16.23;;;12.27;;
2474;SDS011;1248;48.694;10.160;2023-04-30T06:35:45;14.43;;;11.70;;
2474;SDS011;1248;48.694;10.160;2023-04-30T06:38:12;13.23;;;11.50;;
2474;SDS011;1248;48.694;10.160;2023-04-30T06:40:39;14.83;;;11.40;;
2474;SDS011;1248;48.694;10.160;2023-04-30T06:43:06;13.50;;;11.53;;
2474;SDS011;1248;48.694;10.160;2023-04-30T06:45:33;12.83;;;10.67;;
2474;SDS011;1248;48.694;10.160;2023-04-30T06:48:00;14.10;;;11.20;;
2474;SDS011;1248;48.694;10.160;2023-04-30T06:50:27;17.23;;;12.23;;
2474;SDS011;1248;48.694;10.160;2023-04-30T06:52:56;12.50;;;10.53;;
2474;SDS011;1248;48.694;10.160;2023-04-30T06:55:23;12.07;;;10.77;;
2474;SDS011;1248;48.694;10.160;2023-04-30T06:57:51;13.80;;;12.17;;
2474;SDS011;1248;48.694;10.160;2023-04-30T07:00:18;15.37;;;12.50;;
2474;SDS011;1248;48.694;10.160;2023-04-30T07:02:45;16.07;;;13.47;;
2474;SDS011;1248;48.694;10.160;2023-04-30T07:05:16;16.53;;;12.10;;
2474;SDS011;1248;48.694;10.160;2023-04-30T07:07:43;15.20;;;10.70;;
2474;SDS011;1248;48.694;10.160;2023-04-30T07:10:12;13.47;;;10.67;;
2474;SDS011;1248;48.694;10.160;2023-04-30T07:12:39;15.40;;;10.30;;
2474;SDS011;1248;48.694;10.160;2023-04-30T07:15:06;14.53;;;11.17;;
2474;SDS011;1248;48.694;10.160;2023-04-30T07:17:34;12.47;;;10.97;;
2474;SDS011;1248;48.694;10.160;2023-04-30T07:20:01;12.30;;;10.93;;
2474;SDS011;1248;48.694;10.160;2023-04-30T07:22:29;17.13;;;11.50;;
2474;SDS011;1248;48.694;10.160;2023-04-30T07:24:57;12.57;;;11.20;;
2474;SDS011;1248;48.694;10.160;2023-04-30T07:27:26;13.27;;;10.37;;
2474;SDS011;1248;48.694;10.160;2023-04-30T07:29:53;10.73;;;9.60;;
2474;SDS011;1248;48.694;10.160;2023-04-30T07:32:21;13.07;;;10.13;;
2474;SDS011;1248;48.694;10.160;2023-04-30T07:34:51;11.18;;;9.80;;
2474;SDS011;1248;48.694;10.160;2023-04-30T07:37:18;11.47;;;10.27;;
2474;SDS011;1248;48.694;10.160;2023-04-30T07:39:46;12.70;;;9.60;;
2474;SDS011;1248;48.694;10.160;2023-04-30T07:42:13;10.90;;;9.23;;
2474;SDS011;1248;48.694;10.160;2023-04-30T07:44:41;10.37;;;9.37;;
2474;SDS011;1248;48.694;10.160;2023-04-30T07:47:09;14.50;;;9.10;;
2474;SDS011;1248;48.694;10.160;2023-04-30T07:49:36;12.10;;;8.60;;
2474;SDS011;1248;48.694;10.160;2023-04-30T07:52:03;9.93;;;7.77;;
2474;SDS011;1248;48.694;10.160;2023-04-30T07:54:31;9.50;;;8.57;;
2474;SDS011;1248;48.694;10.160;2023-04-30T07:57:01;12.47;;;9.07;;
2474;SDS011;1248;48.694;10.160;2023-04-30T07:59:29;13.87;;;7.83;;
2474;SDS011;1248;48.694;10.160;2023-04-30T08:01:57;10.47;;;9.20;;
2474;SDS011;1248;48.694;10.160;2023-04-30T08:04:24;11.77;;;8.37;;
2474;SDS011;1248;48.694;10.160;2023-04-30T08:06:51;8.73;;;7.90;;
2474;SDS011;1248;48.694;10.160;2023-04-30T08:09:18;10.87;;;8.70;;
2474;SDS011;1248;48.694;10.160;2023-04-30T08:11:45;13.47;;;9.20;;
2474;SDS011;1248;48.694;10.160;2023-04-30T08:14:12;8.50;;;7.70;;
2474;SDS011;1248;48.694;10.160;2023-04-30T08:16:39;8.27;;;7.47;;
2474;SDS011;1248;48.694;10.160;2023-04-30T08:19:08;12.67;;;7.03;;
2474;SDS011;1248;48.694;10.160;2023-04-30T08:21:35;7.03;;;6.30;;
2474;SDS011;1248;48.694;10.160;2023-04-30T08:24:02;8.80;;;7.30;;
2474;SDS011;1248;48.694;10.160;2023-04-30T08:26:29;5.73;;;5.13;;
2474;SDS011;1248;48.694;10.160;2023-04-30T08:28:56;6.47;;;5.60;;
2474;SDS011;1248;48.694;10.160;2023-04-30T08:31:23;6.33;;;5.63;;
2474;SDS011;1248;48.694;10.160;2023-04-30T08:33:50;7.13;;;5.00;;
2474;SDS011;1248;48.694;10.160;2023-04-30T08:36:18;6.53;;;5.93;;
2474;SDS011;1248;48.694;10.160;2023-04-30T08:38:46;7.03;;;5.50;;
2474;SDS011;1248;48.694;10.160;2023-04-30T08:41:13;5.50;;;5.00;;
2474;SDS011;1248;48.694;10.160;2023-04-30T08:43:41;8.47;;;5.40;;
2474;SDS011;1248;48.694;10.160;2023-04-30T08:46:10;4.87;;;4.37;;
2474;SDS011;1248;48.694;10.160;2023-04-30T08:48:38;5.20;;;4.70;;
2474;SDS011;1248;48.694;10.160;2023-04-30T08:51:06;6.30;;;5.70;;
2474;SDS011;1248;48.694;10.160;2023-04-30T08:53:35;5.70;;;5.00;;
2474;SDS011;1248;48.694;10.160;2023-04-30T08:56:03;5.40;;;4.90;;
2474;SDS011;1248;48.694;10.160;2023-04-30T08:58:31;6.07;;;5.13;;
2474;SDS011;1248;48.694;10.160;2023-04-30T09:00:58;4.77;;;4.23;;
2474;SDS011;1248;48.694;10.160;2023-04-30T09:03:25;5.23;;;4.57;;
2474;SDS011;1248;48.694;10.160;2023-04-30T09:05:53;4.37;;;3.80;;
2474;SDS011;1248;48.694;10.160;2023-04-30T09:11:21;7.80;;;4.10;;
2474;SDS011;1248;48.694;10.160;2023-04-30T09:13:49;5.23;;;3.80;;
2474;SDS011;1248;48.694;10.160;2023-04-30T09:16:17;6.93;;;4.30;;
2474;SDS011;1248;48.694;10.160;2023-04-30T09:18:45;5.40;;;4.00;;
2474;SDS011;1248;48.694;10.160;2023-04-30T09:21:12;4.80;;;4.40;;
2474;SDS011;1248;48.694;10.160;2023-04-30T09:23:56;5.00;;;4.50;;
2474;SDS011;1248;48.694;10.160;2023-04-30T09:26:29;5.00;;;4.50;;
2474;SDS011;1248;48.694;10.160;2023-04-30T09:28:57;4.60;;;4.10;;
2474;SDS011;1248;48.694;10.160;2023-04-30T09:31:25;8.53;;;4.53;;
2474;SDS011;1248;48.694;10.160;2023-04-30T09:33:52;5.10;;;3.90;;
2474;SDS011;1248;48.694;10.160;2023-04-30T09:36:19;6.00;;;4.50;;
2474;SDS011;1248;48.694;10.160;2023-04-30T09:38:46;4.50;;;4.10;;
2474;SDS011;1248;48.694;10.160;2023-04-30T09:41:21;5.67;;;4.30;;
2474;SDS011;1248;48.694;10.160;2023-04-30T09:43:50;5.03;;;4.53;;
2474;SDS011;1248;48.694;10.160;2023-04-30T09:46:17;4.40;;;3.20;;
2474;SDS011;1248;48.694;10.160;2023-04-30T09:48:45;4.30;;;3.90;;
2474;SDS011;1248;48.694;10.160;2023-04-30T09:51:13;5.00;;;4.10;;
2474;SDS011;1248;48.694;10.160;2023-04-30T09:53:41;5.20;;;4.30;;
2474;SDS011;1248;48.694;10.160;2023-04-30T09:56:10;5.60;;;5.03;;
2474;SDS011;1248;48.694;10.160;2023-04-30T09:58:39;5.07;;;4.37;;
2474;SDS011;1248;48.694;10.160;2023-04-30T10:01:10;4.40;;;4.00;;
2474;SDS011;1248;48.694;10.160;2023-04-30T10:03:38;4.83;;;4.20;;
2474;SDS011;1248;48.694;10.160;2023-04-30T10:06:06;7.77;;;5.03;;
2474;SDS011;1248;48.694;10.160;2023-04-30T10:08:35;5.70;;;5.10;;
2474;SDS011;1248;48.694;10.160;2023-04-30T10:11:06;6.47;;;5.63;;
2474;SDS011;1248;48.694;10.160;2023-04-30T10:13:39;5.30;;;4.67;;
2474;SDS011;1248;48.694;10.160;2023-04-30T10:16:13;7.13;;;4.83;;
2474;SDS011;1248;48.694;10.160;2023-04-30T10:18:43;7.60;;;4.73;;
2474;SDS011;1248;48.694;10.160;2023-04-30T10:21:13;5.30;;;4.73;;
2474;SDS011;1248;48.694;10.160;2023-04-30T10:23:43;5.47;;;5.00;;
2474;SDS011;1248;48.694;10.160;2023-04-30T10:26:10;6.47;;;4.93;;
2474;SDS011;1248;48.694;10.160;2023-04-30T10:28:38;6.13;;;5.47;;
2474;SDS011;1248;48.694;10.160;2023-04-30T10:31:06;7.67;;;5.33;;
2474;SDS011;1248;48.694;10.160;2023-04-30T10:33:36;6.23;;;4.77;;
2474;SDS011;1248;48.694;10.160;2023-04-30T10:36:25;5.43;;;4.33;;
2474;SDS011;1248;48.694;10.160;2023-04-30T10:38:57;4.87;;;4.40;;
2474;SDS011;1248;48.694;10.160;2023-04-30T10:41:25;7.03;;;5.40;;
2474;SDS011;1248;48.694;10.160;2023-04-30T10:43:55;6.60;;;5.03;;
2474;SDS011;1248;48.694;10.160;2023-04-30T10:46:24;4.43;;;4.03;;
2474;SDS011;1248;48.694;10.160;2023-04-30T10:48:52;4.60;;;3.70;;
2474;SDS011;1248;48.694;10.160;2023-04-30T10:51:20;4.13;;;3.73;;
2474;SDS011;1248;48.694;10.160;2023-04-30T10:53:49;4.87;;;4.47;;
2474;SDS011;1248;48.694;10.160;2023-04-30T10:56:29;7.87;;;6.73;;
2474;SDS011;1248;48.694;10.160;2023-04-30T10:59:00;6.00;;;5.50;;
2474;SDS011;1248;48.694;10.160;2023-04-30T11:01:29;7.30;;;6.00;;
2474;SDS011;1248;48.694;10.160;2023-04-30T11:04:03;7.90;;;5.43;;
2474;SDS011;1248;48.694;10.160;2023-04-30T11:09:35;4.63;;;4.27;;
2474;SDS011;1248;48.694;10.160;2023-04-30T11:12:09;9.47;;;5.40;;
2474;SDS011;1248;48.694;10.160;2023-04-30T11:14:38;4.50;;;4.03;;
2474;SDS011;1248;48.694;10.160;2023-04-30T11:17:09;3.90;;;3.53;;
2474;SDS011;1248;48.694;10.160;2023-04-30T11:19:46;6.17;;;4.70;;
2474;SDS011;1248;48.694;10.160;2023-04-30T11:22:14;5.33;;;3.67;;
2474;SDS011;1248;48.694;10.160;2023-04-30T11:24:49;6.50;;;4.60;;
2474;SDS011;1248;48.694;10.160;2023-04-30T11:27:18;4.87;;;4.07;;
2474;SDS011;1248;48.694;10.160;2023-04-30T11:29:46;4.30;;;3.90;;
2474;SDS011;1248;48.694;10.160;2023-04-30T11:32:15;4.83;;;3.97;;
2474;SDS011;1248;48.694;10.160;2023-04-30T11:34:42;4.20;;;3.90;;
2474;SDS011;1248;48.694;10.160;2023-04-30T11:37:10;3.87;;;3.57;;
2474;SDS011;1248;48.694;10.160;2023-04-30T11:39:38;7.17;;;4.10;;
2474;SDS011;1248;48.694;10.160;2023-04-30T11:42:05;5.43;;;4.23;;
2474;SDS011;1248;48.694;10.160;2023-04-30T11:44:32;4.20;;;3.80;;
2474;SDS011;1248;48.694;10.160;2023-04-30T11:47:00;5.80;;;5.20;;
2474;SDS011;1248;48.694;10.160;2023-04-30T11:49:28;4.97;;;4.40;;
2474;SDS011;1248;48.694;10.160;2023-04-30T11:51:56;3.80;;;3.40;;
2474;SDS011;1248;48.694;10.160;2023-04-30T11:54:23;3.63;;;3.33;;
2474;SDS011;1248;48.694;10.160;2023-04-30T11:56:50;5.10;;;4.27;;
2474;SDS011;1248;48.694;10.160;2023-04-30T11:59:17;4.73;;;4.20;;
2474;SDS011;1248;48.694;10.160;2023-04-30T12:01:44;5.50;;;4.00;;
2474;SDS011;1248;48.694;10.160;2023-04-30T12:04:12;5.37;;;3.40;;
2474;SDS011;1248;48.694;10.160;2023-04-30T12:06:40;6.30;;;3.67;;
2474;SDS011;1248;48.694;10.160;2023-04-30T12:09:07;5.50;;;3.83;;
2474;SDS011;1248;48.694;10.160;2023-04-30T12:11:36;4.20;;;3.73;;
2474;SDS011;1248;48.694;10.160;2023-04-30T12:14:04;4.80;;;3.70;;
2474;SDS011;1248;48.694;10.160;2023-04-30T12:16:38;6.87;;;5.57;;
2474;SDS011;1248;48.694;10.160;2023-04-30T12:19:06;4.73;;;4.23;;
2474;SDS011;1248;48.694;10.160;2023-04-30T12:21:34;3.67;;;3.37;;
2474;SDS011;1248;48.694;10.160;2023-04-30T12:24:03;6.20;;;3.80;;
2474;SDS011;1248;48.694;10.160;2023-04-30T12:26:33;10.33;;;6.60;;
2474;SDS011;1248;48.694;10.160;2023-04-30T12:29:02;13.30;;;7.80;;
2474;SDS011;1248;48.694;10.160;2023-04-30T12:31:30;11.30;;;6.67;;
2474;SDS011;1248;48.694;10.160;2023-04-30T12:34:01;13.70;;;8.60;;
2474;SDS011;1248;48.694;10.160;2023-04-30T12:36:31;8.63;;;4.20;;
2474;SDS011;1248;48.694;10.160;2023-04-30T12:39:04;7.60;;;4.40;;
2474;SDS011;1248;48.694;10.160;2023-04-30T12:41:35;4.93;;;4.43;;
2474;SDS011;1248;48.694;10.160;2023-04-30T12:44:12;6.80;;;3.80;;
2474;SDS011;1248;48.694;10.160;2023-04-30T12:46:40;3.97;;;3.57;;
2474;SDS011;1248;48.694;10.160;2023-04-30T12:49:07;5.23;;;4.77;;
2474;SDS011;1248;48.694;10.160;2023-04-30T12:51:35;6.53;;;4.13;;
2474;SDS011;1248;48.694;10.160;2023-04-30T12:54:06;5.03;;;4.20;;
2474;SDS011;1248;48.694;10.160;2023-04-30T12:56:33;4.00;;;3.70;;
2474;SDS011;1248;48.694;10.160;2023-04-30T12:59:00;5.50;;;3.83;;
2474;SDS011;1248;48.694;10.160;2023-04-30T13:01:27;4.63;;;3.50;;
2474;SDS011;1248;48.694;10.160;2023-04-30T13:03:54;4.20;;;3.67;;
2474;SDS011;1248;48.694;10.160;2023-04-30T13:06:21;3.20;;;2.90;;
2474;SDS011;1248;48.694;10.160;2023-04-30T13:08:48;3.13;;;2.92;;
2474;SDS011;1248;48.694;10.160;2023-04-30T13:11:17;3.77;;;3.37;;
2474;SDS011;1248;48.694;10.160;2023-04-30T13:13:44;2.90;;;2.70;;
2474;SDS011;1248;48.694;10.160;2023-04-30T13:16:11;3.23;;;2.90;;
2474;SDS011;1248;48.694;10.160;2023-04-30T13:18:39;3.33;;;2.87;;
2474;SDS011;1248;48.694;10.160;2023-04-30T13:21:06;3.03;;;2.73;;
2474;SDS011;1248;48.694;10.160;2023-04-30T13:23:33;3.17;;;2.97;;
2474;SDS011;1248;48.694;10.160;2023-04-30T13:26:00;3.67;;;3.27;;
2474;SDS011;1248;48.694;10.160;2023-04-30T13:28:28;4.00;;;3.30;;
2474;SDS011;1248;48.694;10.160;2023-04-30T13:30:55;2.93;;;2.63;;
2474;SDS011;1248;48.694;10.160;2023-04-30T13:33:22;3.23;;;2.93;;
2474;SDS011;1248;48.694;10.160;2023-04-30T13:35:49;3.73;;;3.43;;
2474;SDS011;1248;48.694;10.160;2023-04-30T13:38:16;3.23;;;2.63;;
2474;SDS011;1248;48.694;10.160;2023-04-30T13:40:43;3.27;;;2.60;;
2474;SDS011;1248;48.694;10.160;2023-04-30T13:43:10;3.30;;;2.80;;
2474;SDS011;1248;48.694;10.160;2023-04-30T13:45:39;3.23;;;2.97;;
2474;SDS011;1248;48.694;10.160;2023-04-30T13:48:06;3.60;;;3.30;;
2474;SDS011;1248;48.694;10.160;2023-04-30T13:50:33;2.90;;;2.60;;
2474;SDS011;1248;48.694;10.160;2023-04-30T13:53:01;2.97;;;2.77;;
2474;SDS011;1248;48.694;10.160;2023-04-30T13:55:28;3.70;;;2.80;;
2474;SDS011;1248;48.694;10.160;2023-04-30T13:57:55;3.73;;;3.20;;
2474;SDS011;1248;48.694;10.160;2023-04-30T14:00:23;3.67;;;2.80;;
2474;SDS011;1248;48.694;10.160;2023-04-30T14:02:52;3.60;;;2.60;;
2474;SDS011;1248;48.694;10.160;2023-04-30T14:05:20;2.95;;;2.70;;
2474;SDS011;1248;48.694;10.160;2023-04-30T14:07:47;3.30;;;2.37;;
2474;SDS011;1248;48.694;10.160;2023-04-30T14:10:14;2.73;;;2.13;;
2474;SDS011;1248;48.694;10.160;2023-04-30T14:12:41;3.07;;;2.60;;
2474;SDS011;1248;48.694;10.160;2023-04-30T14:15:08;2.93;;;2.67;;
2474;SDS011;1248;48.694;10.160;2023-04-30T14:17:35;2.70;;;2.50;;
2474;SDS011;1248;48.694;10.160;2023-04-30T14:20:05;3.30;;;3.00;;
2474;SDS011;1248;48.694;10.160;2023-04-30T14:22:32;5.10;;;3.60;;
2474;SDS011;1248;48.694;10.160;2023-04-30T14:25:03;3.70;;;3.40;;
2474;SDS011;1248;48.694;10.160;2023-04-30T14:27:30;3.40;;;3.10;;
2474;SDS011;1248;48.694;10.160;2023-04-30T14:29:57;2.40;;;2.20;;
2474;SDS011;1248;48.694;10.160;2023-04-30T14:32:24;3.47;;;2.70;;
2474;SDS011;1248;48.694;10.160;2023-04-30T14:34:51;2.90;;;2.10;;
2474;SDS011;1248;48.694;10.160;2023-04-30T14:37:20;3.60;;;2.93;;
2474;SDS011;1248;48.694;10.160;2023-04-30T14:39:47;2.60;;;2.40;;
2474;SDS011;1248;48.694;10.160;2023-04-30T14:42:14;2.30;;;1.97;;
2474;SDS011;1248;48.694;10.160;2023-04-30T14:44:41;3.50;;;2.27;;
2474;SDS011;1248;48.694;10.160;2023-04-30T14:47:08;3.43;;;3.13;;
2474;SDS011;1248;48.694;10.160;2023-04-30T14:49:36;2.97;;;2.33;;
2474;SDS011;1248;48.694;10.160;2023-04-30T14:52:03;3.30;;;3.07;;
2474;SDS011;1248;48.694;10.160;2023-04-30T14:54:32;3.00;;;2.80;;
2474;SDS011;1248;48.694;10.160;2023-04-30T14:56:59;3.30;;;3.00;;
2474;SDS011;1248;48.694;10.160;2023-04-30T14:59:26;4.43;;;3.20;;
2474;SDS011;1248;48.694;10.160;2023-04-30T15:01:53;4.43;;;3.30;;
2474;SDS011;1248;48.694;10.160;2023-04-30T15:04:20;3.43;;;3.13;;
2474;SDS011;1248;48.694;10.160;2023-04-30T15:06:47;5.43;;;3.67;;